Pazifik — ZDKS7 — position and weather

sailwx.info

Track history (hours):
 
Tides and Currents Weather Stations Pressure Air Temp Water Temp Dewpoint Dewpoint Depression Visibility Wind Speed Wind Dir Waves Ship Positions

Pazifik

Last reported at 2015-Jan-31 07:20 UTC. Time now 2015-Jan-31 21:11 UTC.
Position N 59°16' E 005°30'.

Length 205 m; draft 8.2 m.

Type: Ship (hazmat cat A). MMSI: 236111796.

Date/timePositionNaut miles runAvg speedWind from/ knotsBaromVisibWave heightAir tempDewpointWater temp
2015-Jan-31 07:20N 59°16' E 005°30'1 1.7
2015-Jan-31 06:33N 59°15' E 005°31'3 3.3
2015-Jan-31 05:31N 59°17' E 005°35'0 0.0
2015-Jan-31 04:31N 59°17' E 005°35'0 0.0
2015-Jan-31 03:31N 59°17' E 005°35'0 0.0
2015-Jan-31 02:31N 59°17' E 005°35'0 0.0
2015-Jan-31 01:31N 59°17' E 005°35'0 0.0
2015-Jan-31 00:31N 59°17' E 005°35'0 0.0
2015-Jan-30 23:31N 59°17' E 005°35'0 0.0
2015-Jan-30 22:31N 59°17' E 005°35'0 0.0
2015-Jan-30 21:31N 59°17' E 005°35'0 0.0
2015-Jan-30 20:31N 59°17' E 005°35'0 0.0
2015-Jan-30 19:31N 59°17' E 005°35'0 0.0
2015-Jan-30 18:25N 59°17' E 005°35'0 0.0
2015-Jan-30 17:31N 59°17' E 005°35'0 0.1
2015-Jan-30 16:28N 59°18' E 005°35'0 0.0
2015-Jan-30 15:25N 59°18' E 005°36'0 0.0
2015-Jan-30 14:31N 59°18' E 005°36'0 0.1
2015-Jan-30 13:28N 59°18' E 005°35'0 0.0
2015-Jan-30 12:31N 59°18' E 005°35'5 5.5
2015-Jan-30 11:32N 59°12' E 005°34'1212.6
2015-Jan-30 10:33N 59°06' E 005°13'5 4.6
2015-Jan-30 09:33N 59°02' E 005°10'3 2.5
2015-Jan-30 08:33N 59°02' E 005°05'3 2.8
2015-Jan-30 07:17N 59°05' E 005°01'7 1.1
2015-Jan-30 00:33N 59°00' E 005°12'1 1.0
2015-Jan-29 23:33N 59°01' E 005°12'5 5.3
2015-Jan-29 22:31N 59°05' E 005°04'3 0.8
2015-Jan-29 18:29N 59°02' E 005°06'0 0.0
2015-Jan-29 15:20N 59°02' E 005°06'2 2.7
2015-Jan-29 14:32N 59°01' E 005°10'1 0.4
2015-Jan-29 11:26N 59°02' E 005°08'2 1.7
2015-Jan-29 10:33N 59°00' E 005°09'1 1.3
2015-Jan-29 09:33N 59°02' E 005°08'29113.8
2015-Jan-28 12:25N 59°20' W 004°20'57113.3
2015-Jan-26 17:29N 50°52' W 011°53'1314.2
2015-Jan-26 16:33N 50°40' W 011°47'69515.1
2015-Jan-24 18:33N 39°09' W 009°57'2115.6
2015-Jan-24 17:11N 38°48' W 009°57'1015.4
2015-Jan-24 16:33N 38°38' W 009°56'1515.3
2015-Jan-24 15:32N 38°23' W 009°52'3115.7
2015-Jan-24 13:33N 37°53' W 009°42'1715.6
2015-Jan-24 12:27N 37°36' W 009°38'8013.5
2015-Jan-24 06:33N 36°33' W 008°37'15415.3
2015-Jan-23 20:26N 35°59' W 005°30'7 8.3
2015-Jan-23 19:33N 36°05' W 005°25'0 0.1
2015-Jan-23 18:32N 36°05' W 005°24'0 0.1
2015-Jan-23 17:32N 36°05' W 005°24'0 0.1
2015-Jan-23 16:29N 36°05' W 005°24'0 0.1
2015-Jan-23 15:32N 36°05' W 005°24'0 0.1
2015-Jan-23 14:32N 36°05' W 005°25'0 0.0
2015-Jan-23 12:11N 36°05' W 005°25'0 0.0
2015-Jan-23 11:17N 36°05' W 005°25'0 0.0
2015-Jan-23 10:29N 36°05' W 005°25'0 0.0
2015-Jan-23 09:29N 36°05' W 005°25'0 0.0
2015-Jan-23 08:29N 36°05' W 005°25'0 0.0
2015-Jan-23 07:32N 36°05' W 005°25'0 0.0
2015-Jan-23 06:29N 36°05' W 005°25'0 0.1
2015-Jan-23 05:26N 36°05' W 005°25'0 0.1
2015-Jan-23 04:29N 36°05' W 005°25'0 0.0
2015-Jan-23 03:29N 36°05' W 005°25'0 0.1
2015-Jan-23 02:32N 36°05' W 005°25'0 0.1
2015-Jan-23 00:29N 36°05' W 005°25'0 0.0
2015-Jan-22 23:23N 36°05' W 005°25'0 0.0
2015-Jan-22 22:29N 36°05' W 005°25'0 0.1
2015-Jan-22 21:31N 36°05' W 005°25'1 1.4
2015-Jan-22 20:33N 36°05' W 005°23'1 0.5
2015-Jan-22 19:33N 36°05' W 005°23'7 6.7
2015-Jan-22 18:33N 36°07' W 005°15'3 2.2
2015-Jan-22 17:09N 36°09' W 005°13'3 1.7
2015-Jan-22 15:33N 36°07' W 005°15'4 4.4
2015-Jan-22 14:33N 36°04' W 005°18'2 1.7
2015-Jan-22 13:33N 36°04' W 005°16'  
Track history (hours):
 
Tides and Currents Weather Stations Pressure Air Temp Water Temp Dewpoint Dewpoint Depression Visibility Wind Speed Wind Dir Waves Ship Positions

Pazifik

Last reported at 2015-Jan-31 07:20 UTC. Time now 2015-Jan-31 21:11 UTC.
Position N 59°16' E 005°30'.

Length 205 m; draft 8.2 m.

Type: Ship (hazmat cat A). MMSI: 236111796.

Date/timePositionNaut miles runAvg speedWind from/ knotsBaromVisibWave heightAir tempDewpointWater temp
2015-Jan-31 07:20N 59°16' E 005°30'1 1.7
2015-Jan-31 06:33N 59°15' E 005°31'3 3.3
2015-Jan-31 05:31N 59°17' E 005°35'0 0.0
2015-Jan-31 04:31N 59°17' E 005°35'0 0.0
2015-Jan-31 03:31N 59°17' E 005°35'0 0.0
2015-Jan-31 02:31N 59°17' E 005°35'0 0.0
2015-Jan-31 01:31N 59°17' E 005°35'0 0.0
2015-Jan-31 00:31N 59°17' E 005°35'0 0.0
2015-Jan-30 23:31N 59°17' E 005°35'0 0.0
2015-Jan-30 22:31N 59°17' E 005°35'0 0.0
2015-Jan-30 21:31N 59°17' E 005°35'0 0.0
2015-Jan-30 20:31N 59°17' E 005°35'0 0.0
2015-Jan-30 19:31N 59°17' E 005°35'0 0.0
2015-Jan-30 18:25N 59°17' E 005°35'0 0.0
2015-Jan-30 17:31N 59°17' E 005°35'0 0.1
2015-Jan-30 16:28N 59°18' E 005°35'0 0.0
2015-Jan-30 15:25N 59°18' E 005°36'0 0.0
2015-Jan-30 14:31N 59°18' E 005°36'0 0.1
2015-Jan-30 13:28N 59°18' E 005°35'0 0.0
2015-Jan-30 12:31N 59°18' E 005°35'5 5.5
2015-Jan-30 11:32N 59°12' E 005°34'1212.6
2015-Jan-30 10:33N 59°06' E 005°13'5 4.6
2015-Jan-30 09:33N 59°02' E 005°10'3 2.5
2015-Jan-30 08:33N 59°02' E 005°05'3 2.8
2015-Jan-30 07:17N 59°05' E 005°01'7 1.1
2015-Jan-30 00:33N 59°00' E 005°12'1 1.0
2015-Jan-29 23:33N 59°01' E 005°12'5 5.3
2015-Jan-29 22:31N 59°05' E 005°04'3 0.8
2015-Jan-29 18:29N 59°02' E 005°06'0 0.0
2015-Jan-29 15:20N 59°02' E 005°06'2 2.7
2015-Jan-29 14:32N 59°01' E 005°10'1 0.4
2015-Jan-29 11:26N 59°02' E 005°08'2 1.7
2015-Jan-29 10:33N 59°00' E 005°09'1 1.3
2015-Jan-29 09:33N 59°02' E 005°08'29113.8
2015-Jan-28 12:25N 59°20' W 004°20'57113.3
2015-Jan-26 17:29N 50°52' W 011°53'1314.2
2015-Jan-26 16:33N 50°40' W 011°47'69515.1
2015-Jan-24 18:33N 39°09' W 009°57'2115.6
2015-Jan-24 17:11N 38°48' W 009°57'1015.4
2015-Jan-24 16:33N 38°38' W 009°56'1515.3
2015-Jan-24 15:32N 38°23' W 009°52'3115.7
2015-Jan-24 13:33N 37°53' W 009°42'1715.6
2015-Jan-24 12:27N 37°36' W 009°38'8013.5
2015-Jan-24 06:33N 36°33' W 008°37'15415.3
2015-Jan-23 20:26N 35°59' W 005°30'7 8.3
2015-Jan-23 19:33N 36°05' W 005°25'0 0.1
2015-Jan-23 18:32N 36°05' W 005°24'0 0.1
2015-Jan-23 17:32N 36°05' W 005°24'0 0.1
2015-Jan-23 16:29N 36°05' W 005°24'0 0.1
2015-Jan-23 15:32N 36°05' W 005°24'0 0.1
2015-Jan-23 14:32N 36°05' W 005°25'0 0.0
2015-Jan-23 12:11N 36°05' W 005°25'0 0.0
2015-Jan-23 11:17N 36°05' W 005°25'0 0.0
2015-Jan-23 10:29N 36°05' W 005°25'0 0.0
2015-Jan-23 09:29N 36°05' W 005°25'0 0.0
2015-Jan-23 08:29N 36°05' W 005°25'0 0.0
2015-Jan-23 07:32N 36°05' W 005°25'0 0.0
2015-Jan-23 06:29N 36°05' W 005°25'0 0.1
2015-Jan-23 05:26N 36°05' W 005°25'0 0.1
2015-Jan-23 04:29N 36°05' W 005°25'0 0.0
2015-Jan-23 03:29N 36°05' W 005°25'0 0.1
2015-Jan-23 02:32N 36°05' W 005°25'0 0.1
2015-Jan-23 00:29N 36°05' W 005°25'0 0.0
2015-Jan-22 23:23N 36°05' W 005°25'0 0.0
2015-Jan-22 22:29N 36°05' W 005°25'0 0.1
2015-Jan-22 21:31N 36°05' W 005°25'1 1.4
2015-Jan-22 20:33N 36°05' W 005°23'1 0.5
2015-Jan-22 19:33N 36°05' W 005°23'7 6.7
2015-Jan-22 18:33N 36°07' W 005°15'3 2.2
2015-Jan-22 17:09N 36°09' W 005°13'3 1.7
2015-Jan-22 15:33N 36°07' W 005°15'4 4.4
2015-Jan-22 14:33N 36°04' W 005°18'2 1.7
2015-Jan-22 13:33N 36°04' W 005°16'  

Dump ship's entire track history